Tiempo atmosférico en la estación meteorológica de Castellote, Teruel (755 m.)



Fecha
DESCASC
Temp. máxima en grados centígrados (hora)
DESCASC
Temp. mínima en grados centígrados (hora)
DESCASC
Temp. media en grados centígrados
DESCASC
Racha de viento máxima en m/sg (hora)
DESCASC
Velocidad máxima media en intervalos de 10 minutos(hora)
DESCASC
Precipitaciones diarias en mm
DESCASC
Precipitaciones de 00:00 a 06:00 en mm
DESCASC
Precipitaciones de 06:00 a 12:00 en mm
DESCASC
Precipitaciones de 12:00 a 18:00 en mm
DESCASC
Precipitaciones de 18:00 a 24:00 en mm
DESCASC
18-01-2018 16 (15:00) 1.1 (08:00) 8.6 8.33 (00:30) 4.17 (00:30) 0 0 0 0 0
17-01-2018 11.4 (13:50) 5.1 (23:10) 8.2 18.33 (16:40) 8.06 (01:10) 0 0 0 0 0
16-01-2018 16.1 (15:30) 7.1 (00:00) 11.6 16.39 (05:00) 10.28 (05:20) 0 0 0 0 0
15-01-2018 11 (15:40) 3.1 (06:20) 7 7.22 (14:10) 3.33 (11:50) 0 0 0 0 0
14-01-2018 7.7 (13:00) 3.1 (00:00) 5.4 10.28 (07:10) 5.56 (07:20) 0.2 0.2 0 0 0
13-01-2018 9 (13:50) 0.8 (00:00) 4.9 6.39 (20:00) 3.89 (21:20) 0.8 0 0 0 0.8
12-01-2018 10.1 (14:20) 2.5 (00:00) 6.3 13.89 (04:00) 7.78 (00:30) 0 0 0 0 0
11-01-2018 8 (16:00) 3.4 (00:00) 5.7 18.06 (14:30) 9.72 (04:10) 0 0 0 0 0
10-01-2018 12.3 (14:00) 2.9 (00:00) 7.6 18.89 (21:20) 10.83 (21:30) 0.4 0.4 0 0 0
09-01-2018 8.1 (16:40) -0.7 (-00:0) 3.7 5.83 (16:10) 2.22 (18:50) 0 0 0 0 0
08-01-2018 6.8 (16:30) -0.9 (-00:0) 3 3.06 (13:10) 1.39 (04:30) 0 0 0 0 0
07-01-2018 8.2 (14:40) -0.1 (00:00) 4 9.72 (16:00) 5.56 (16:20) 6.8 6.8 0 0 0
06-01-2018 10.6 (14:30) 3.8 (00:00) 7.2 10.83 (12:20) 6.11 (12:20) 16.2 0 0 2.8 13.4
05-01-2018 17.4 (15:20) 5.1 (00:00) 11.2 8.33 (19:50) 5.28 (19:50) 0 0 0 0 0
04-01-2018 17.6 (15:00) 10.7 (23:59) 14.2 16.11 (12:30) 9.17 (19:50) 0 0 0 0 0
03-01-2018 18.4 (13:50) 11.8 (00:00) 15.1 13.61 (06:10) 7.5 (01:10) 0 0 0 0 0
02-01-2018 16.4 (14:30) 8.4 (00:00) 12.4 14.44 (21:00) 8.33 (21:20) 0 0 0 0 0
01-01-2018 14.7 (14:30) 4.3 (00:00) 9.5 18.06 (20:50) 9.72 (19:40) 0 0 0 0 0
31-12-2017 12.5 (17:20) 3.9 (00:00) 8.2 15.28 (22:50) 6.94 (21:50) 0.2 0 0 0 0.2
30-12-2017 17.7 (15:00) 9.3 (00:00) 13.5 11.94 (11:10) 7.78 (11:30) 0 0 0 0 0
29-12-2017 15 (15:30) 6.3 (00:00) 10.7 16.67 (14:40) 8.06 (15:10) 0.4 0 0.2 0.2 0
28-12-2017 13.6 (15:00) 4.5 (00:00) 9.1 13.89 (22:30) 6.11 (23:00) 0 0 0 0 0
27-12-2017 9.7 (02:00) 2.9 (00:00) 6.3 20.28 (13:10) 13.61 (00:20) 2.8 1.6 0 0 1.2
26-12-2017 9.6 (13:20) 4.3 (00:00) 7 16.67 (22:30) 8.06 (23:10) 0.2 0 0.2 0 0
25-12-2017 13.7 (13:40) 2.2 (00:00) 7.9 7.22 (15:50) 4.17 (15:50) 0 0 0 0 0
24-12-2017 15.8 (15:20) 2.6 (00:00) 9.2 5.56 (15:10) 2.78 (14:50) 0 0 0 0 0

Gráficas

Temp. máximas Temp. mínimas Temp. medias Precipitaciones Rachas de viento máximas Velocidades máximas media en intervalos de 10 minutos

Datos horarios

Fecha y hora oficial Temperatura (ºC) Velocidad del viento (km/h) Dirección del viento Racha (km/h) Dirección de racha Precipitación (mm) Presión (hPa) Tendencia (hPa) Humedad (%)
2018-01-22 23:00:00 10.2 4 Sudeste 22 Oeste 0 -- -- 73
2018-01-22 22:00:00 10.7 4 Sudeste 14 Noroeste 0 -- -- 70
2018-01-22 21:00:00 11.2 9 Este 25 Noroeste 0 -- -- 68
2018-01-22 20:00:00 11.6 9 Sudeste 25 Noroeste 0 -- -- 63
2018-01-22 19:00:00 12.7 10 Oeste 33 Oeste 0 -- -- 53
2018-01-22 18:00:00 14.5 6 Oeste 32 Oeste 0 -- -- 41
2018-01-22 17:00:00 17.3 6 Noroeste 37 Oeste 0 -- -- 32
2018-01-22 16:00:00 17.5 19 Noroeste 35 Noroeste 0 -- -- 31
2018-01-22 15:00:00 18.1 5 Norte 35 Noroeste 0 -- -- 38
2018-01-22 14:00:00 17.4 10 Noroeste 31 Noroeste 0 -- -- 37
2018-01-22 13:00:00 16.9 12 Noroeste 20 Noroeste 0 -- -- 39
2018-01-22 12:00:00 16.1 7 Noroeste 21 Oeste 0 -- -- 45
2018-01-22 11:00:00 14 3 Oeste 16 Oeste 0 -- -- 51
2018-01-22 10:00:00 11.7 2 Sudeste 9 Oeste 0 -- -- 62
2018-01-22 09:00:00 10.5 6 Oeste 17 Oeste 0 -- -- 65
2018-01-22 08:00:00 8 2 Sudoeste 13 Oeste 0 -- -- 76
2018-01-22 07:00:00 9.2 0 Calma 6 Sur 0 -- -- 72
2018-01-22 06:00:00 9.9 2 Oeste 9 Este 0 -- -- 70
2018-01-22 05:00:00 9.7 4 Este 19 Norte 0 -- -- 72
2018-01-22 04:00:00 9.9 5 Sudeste 18 Sudeste 0 -- -- 71
2018-01-22 03:00:00 9.7 6 Sudeste 21 Norte 0 -- -- 74
2018-01-22 02:00:00 10.4 8 Este 31 Sudoeste 0 -- -- 72
2018-01-22 01:00:00 10.8 4 Sudeste 26 Oeste 0 -- -- 71
2018-01-22 00:00:00 11.4 4 Sudeste 25 Noroeste 0 -- -- 70
2018-01-21 23:00:00 11.6 8 Oeste 24 Noroeste 0 -- -- 71
2018-01-21 22:00:00 11.7 11 Noroeste 34 Noroeste 0 -- -- 73
2018-01-21 21:00:00 11.7 7 Oeste 38 Sudoeste 0 -- -- 74
2018-01-21 20:00:00 12 8 Noroeste 23 Sudoeste 0 -- -- 72
2018-01-21 19:00:00 12.7 5 Sudoeste 29 Noroeste 0 -- -- 71
2018-01-21 18:00:00 13.8 6 Sudoeste 45 Noroeste 0 -- -- 66
2018-01-21 17:00:00 15.5 24 Noroeste 49 Noroeste 0 -- -- 58
2018-01-21 16:00:00 16.5 18 Noroeste 48 Oeste 0 -- -- 53
2018-01-21 15:00:00 16.2 14 Oeste 57 Oeste 0 -- -- 54
2018-01-21 14:00:00 15.4 27 Oeste 66 Noroeste 0 -- -- 56
2018-01-21 13:00:00 14.9 24 Oeste 60 Oeste 0 -- -- 58
2018-01-21 12:00:00 14.4 22 Oeste 59 Oeste 0 -- -- 60
2018-01-21 11:00:00 12.7 25 Oeste 53 Oeste 0 -- -- 65
2018-01-21 10:00:00 11.4 22 Oeste 52 Oeste 0 -- -- 68
2018-01-21 09:00:00 11.1 15 Oeste 38 Sudoeste 0 -- -- 68
2018-01-21 08:00:00 10.5 10 Oeste 27 Oeste 0 -- -- 70
2018-01-21 07:00:00 10.8 4 Sudoeste 22 Noroeste 0 -- -- 69
2018-01-21 06:00:00 11.2 5 Sudeste 40 Noroeste 0 -- -- 68
2018-01-21 05:00:00 11.2 9 Oeste 36 Oeste 0 -- -- 67
2018-01-21 04:00:00 11.2 10 Oeste 37 Oeste 0 -- -- 64
2018-01-21 03:00:00 11.2 8 Sudoeste 33 Noroeste 0 -- -- 63
2018-01-21 02:00:00 10.7 17 Oeste 36 Oeste 0 -- -- 63
2018-01-21 01:00:00 10.8 15 Oeste 36 Noroeste 0 -- -- 62
2018-01-21 00:00:00 11.2 20 Oeste 43 Oeste 0 -- -- 60
2018-01-20 23:00:00 11.5 18 Oeste 49 Oeste 0 -- -- 57
2018-01-20 22:00:00 11.3 14 Oeste 35 Oeste 0 -- -- 54
2018-01-20 21:00:00 11.4 9 Oeste 38 Oeste 0 -- -- 49
2018-01-20 20:00:00 12.2 18 Oeste 38 Noroeste 0 -- -- 46
2018-01-20 19:00:00 12.9 12 Oeste 57 Noroeste 0 -- -- 42
2018-01-20 18:00:00 13.8 15 Oeste 35 Noroeste 0 -- -- 37
2018-01-20 17:00:00 14.7 16 Oeste 41 Oeste 0 -- -- 35
2018-01-20 16:00:00 16.4 13 Oeste 48 Noroeste 0 -- -- 30
2018-01-20 15:00:00 16.4 15 Oeste 46 Noroeste 0 -- -- 27
2018-01-20 14:00:00 16.1 16 Oeste 35 Noroeste 0 -- -- 29
2018-01-20 13:00:00 15.2 9 Sudoeste 26 Sudoeste 0 -- -- 34
2018-01-20 12:00:00 13.3 8 Oeste 33 Noroeste 0 -- -- 39
2018-01-20 11:00:00 11.7 8 Oeste 28 Noroeste 0 -- -- 43
2018-01-20 10:00:00 8.4 7 Oeste 18 Noroeste 0 -- -- 51
2018-01-20 09:00:00 7.1 7 Oeste 33 Oeste 0 -- -- 55
2018-01-20 08:00:00 5.5 4 Sudoeste 17 Sudeste 0 -- -- 63
2018-01-20 07:00:00 5.5 7 Este 15 Nordeste 0 -- -- 67
2018-01-20 06:00:00 6.1 12 Oeste 39 Noroeste 0 -- -- 64
2018-01-20 05:00:00 6.5 17 Oeste 41 Noroeste 0 -- -- 63
2018-01-20 04:00:00 6.6 16 Oeste 61 Noroeste 0 -- -- 63
2018-01-20 03:00:00 6.8 27 Oeste 51 Oeste 0 -- -- 61
2018-01-20 02:00:00 6.8 23 Oeste 52 Noroeste 0 -- -- 61
2018-01-20 01:00:00 6.9 20 Oeste 53 Noroeste 0 -- -- 63
2018-01-20 00:00:00 7.1 22 Oeste 46 Oeste 0 -- -- 64
2018-01-19 23:00:00 6.6 10 Noroeste 43 Noroeste 0 -- -- 70
2018-01-19 22:00:00 6.9 18 Oeste 52 Noroeste 0 -- -- 74
2018-01-19 21:00:00 7.7 18 Oeste 42 Oeste 0 -- -- 72
2018-01-19 20:00:00 8.5 14 Oeste 39 Oeste 0 -- -- 71
2018-01-19 19:00:00 9.6 15 Noroeste 37 Noroeste 0 -- -- 70
2018-01-19 18:00:00 10.3 5 Sur 32 Noroeste 0 -- -- 66
2018-01-19 17:00:00 11.8 15 Noroeste 45 Noroeste 0 -- -- 58
2018-01-19 16:00:00 12.7 16 Noroeste 50 Noroeste 0 -- -- 53
2018-01-19 15:00:00 11.6 17 Oeste 48 Noroeste 0 -- -- 57
2018-01-19 14:00:00 12.4 20 Noroeste 39 Noroeste 0 -- -- 53
2018-01-19 13:00:00 11.2 14 Noroeste 40 Noroeste 0 -- -- 60
2018-01-19 12:00:00 11.1 13 Noroeste 32 Oeste 0 -- -- 60
2018-01-19 11:00:00 9.9 13 Noroeste 31 Oeste 0 -- -- 64
2018-01-19 10:00:00 8.5 9 Oeste 24 Sudoeste 0 -- -- 72
2018-01-19 09:00:00 7.4 11 Oeste 31 Noroeste 0 -- -- 75
2018-01-19 08:00:00 7.1 5 Sur 32 Oeste 0 -- -- 75
2018-01-19 07:00:00 7.1 11 Oeste 21 Oeste 0 -- -- 76
2018-01-19 06:00:00 6.9 9 Oeste 21 Oeste 0 -- -- 75
2018-01-19 05:00:00 7.1 13 Oeste 35 Oeste 0 -- -- 71
2018-01-19 04:00:00 7.2 11 Oeste 24 Oeste 0 -- -- 67
2018-01-19 03:00:00 6.6 4 Oeste 12 Oeste 0 -- -- 63
2018-01-19 02:00:00 5.1 11 Oeste 22 Norte 0 -- -- 63
2018-01-19 01:00:00 6.1 0 Calma 9 Este 0 -- -- 57
2018-01-19 00:00:00 6.3 5 Este 8 Nordeste 0 -- -- 58
2018-01-18 23:00:00 6.2 6 Este 10 Este 0 -- -- 58
2018-01-18 22:00:00 6.6 3 Sudeste 8 Este 0 -- -- 58
2018-01-18 21:00:00 7.7 4 Sudeste 8 Este 0 -- -- 55
2018-01-18 20:00:00 9.6 0 Calma 4 Sudoeste 0 -- -- 51
2018-01-18 19:00:00 10 0 Calma 8 Oeste 0 -- -- 50
2018-01-18 18:00:00 11.1 5 Oeste 18 Norte 0 -- -- 47
2018-01-18 17:00:00 13.6 13 Norte 20 Nordeste 0 -- -- 41
2018-01-18 16:00:00 14.1 12 Norte 23 Norte 0 -- -- 38
2018-01-18 15:00:00 16 4 Norte 12 Noroeste 0 -- -- 34
2018-01-18 14:00:00 14.9 4 Sudoeste 10 Este 0 -- -- 31
2018-01-18 13:00:00 12.9 4 Este 10 Este 0 -- -- 35
2018-01-18 12:00:00 11 3 Este 7 Este 0 -- -- 43
2018-01-18 11:00:00 7.8 4 Este 10 Este 0 -- -- 57
2018-01-18 10:00:00 4.9 7 Este 10 Nordeste 0 -- -- 65
2018-01-18 09:00:00 2.2 6 Este 9 Este 0 -- -- 78
2018-01-18 08:00:00 1.1 5 Este 9 Este 0 -- -- 83
2018-01-18 07:00:00 1.6 2 Este 7 Este 0 -- -- 82
2018-01-18 06:00:00 2.2 0 Calma 7 Este 0 -- -- 78
2018-01-18 05:00:00 2.6 5 Este 11 Sudeste 0 -- -- 78
2018-01-18 04:00:00 4.2 4 Oeste 8 Oeste 0 -- -- 74
2018-01-18 03:00:00 4.2 3 Sudoeste 9 Sudoeste 0 -- -- 76
2018-01-18 02:00:00 4.3 2 Sudeste 14 Este 0 -- -- 78
2018-01-18 01:00:00 4.9 9 Noroeste 30 Norte 0 -- -- 76
2018-01-18 00:00:00 5.2 11 Noroeste 28 Noroeste 0 -- -- 74
2018-01-17 23:00:00 5.2 4 Este 13 Este 0 -- -- 74
2018-01-17 22:00:00 5.6 3 Sudeste 16 Norte 0 -- -- 72
2018-01-17 21:00:00 6.4 6 Sudoeste 32 Noroeste 0 -- -- 68
2018-01-17 20:00:00 7 16 Noroeste 37 Noroeste 0 -- -- 63
2018-01-17 19:00:00 7.4 4 Nordeste 27 Noroeste 0 -- -- 59
2018-01-17 18:00:00 8.2 10 Oeste 59 Oeste 0 -- -- 57
2018-01-17 17:00:00 10.1 11 Norte 66 Oeste 0 -- -- 51
2018-01-17 16:00:00 10.3 17 Oeste 62 Oeste 0 -- -- 56
2018-01-17 15:00:00 11 22 Oeste 63 Oeste 0 -- -- 51
2018-01-17 14:00:00 11.2 26 Oeste 64 Noroeste 0 -- -- 50
2018-01-17 13:00:00 11 16 Oeste 52 Noroeste 0 -- -- 52
2018-01-17 12:00:00 10 26 Noroeste 54 Noroeste 0 -- -- 61
2018-01-17 11:00:00 10.1 28 Noroeste 51 Noroeste 0 -- -- 66
2018-01-17 10:00:00 9.7 17 Noroeste 45 Oeste 0 -- -- 68
2018-01-17 09:00:00 9.1 12 Oeste 41 Noroeste 0 -- -- 70
2018-01-17 08:00:00 9.4 7 Oeste 36 Noroeste 0 -- -- 69
2018-01-17 07:00:00 9.8 15 Sudoeste 38 Sudoeste 0 -- -- 68
2018-01-17 06:00:00 9.5 6 Sur 22 Sudoeste 0 -- -- 69
2018-01-17 05:00:00 9.3 10 Sudoeste 37 Sudoeste 0 -- -- 70
2018-01-17 04:00:00 9.8 8 Sudoeste 30 Oeste 0 -- -- 66
2018-01-17 03:00:00 10.5 20 Sudoeste 41 Sudoeste 0 -- -- 63
2018-01-17 02:00:00 10.3 21 Sudoeste 49 Sur 0 -- -- 65
2018-01-17 01:00:00 9.9 23 Sudoeste 48 Sudoeste 0 -- -- 67
2018-01-17 00:00:00 9.9 19 Sudoeste 39 Sudoeste 0 -- -- 68
2018-01-16 23:00:00 9.7 9 Sudoeste 38 Sudeste 0 -- -- 69
2018-01-16 22:00:00 10.6 12 Este 32 Nordeste 0 -- -- 66
2018-01-16 21:00:00 12.1 3 Sur 17 Oeste 0 -- -- 58
2018-01-16 20:00:00 12.5 10 Sudoeste 28 Sudoeste 0 -- -- 58
2018-01-16 19:00:00 12.1 10 Sudoeste 20 Oeste 0 -- -- 62
2018-01-16 18:00:00 12.8 10 Noroeste 30 Oeste 0 -- -- 61
2018-01-16 17:00:00 14.2 16 Oeste 41 Oeste 0 -- -- 57
2018-01-16 16:00:00 15.8 13 Sudoeste 32 Sudoeste 0 -- -- 51
2018-01-16 15:00:00 15.4 18 Sudoeste 32 Sudoeste 0 -- -- 49
2018-01-16 14:00:00 15.2 13 Sudoeste 35 Sudoeste 0 -- -- 50
2018-01-16 13:00:00 14.1 13 Sudoeste 38 Sudoeste 0 -- -- 53
2018-01-16 12:00:00 13.1 21 Sudoeste 36 Sur 0 -- -- 54
2018-01-16 11:00:00 12.1 24 Sudoeste 47 Sudoeste 0 -- -- 56
2018-01-16 10:00:00 11.1 17 Sudoeste 37 Sudoeste 0 -- -- 58
2018-01-16 09:00:00 9.7 22 Oeste 46 Oeste 0 -- -- 61
2018-01-16 08:00:00 9.6 29 Oeste 51 Sudoeste 0 -- -- 63
2018-01-16 07:00:00 9.6 20 Sudoeste 51 Oeste 0 -- -- 61
2018-01-16 06:00:00 9.3 25 Sudoeste 53 Sudoeste 0 -- -- 64
2018-01-16 05:00:00 9.2 31 Oeste 59 Oeste 0 -- -- 59
2018-01-16 04:00:00 8.8 23 Oeste 52 Oeste 0 -- -- 54
2018-01-16 03:00:00 8.7 22 Oeste 48 Sudoeste 0 -- -- 47
2018-01-16 02:00:00 8.2 22 Sudoeste 51 Sudoeste 0 -- -- 41
2018-01-16 01:00:00 7.7 11 Oeste 37 Sudoeste 0 -- -- 46
2018-01-16 00:00:00 7.1 4 Sur 16 Sudeste 0 -- -- 49
2018-01-15 23:00:00 6.2 3 Sudeste 10 Este 0 -- -- 54
2018-01-15 22:00:00 6.4 3 Nordeste 6 Sudeste 0 -- -- 48
2018-01-15 21:00:00 6.5 4 Sudeste 6 Sudeste 0 -- -- 58
2018-01-15 20:00:00 6.9 3 Sudoeste 14 Sur 0 -- -- 59
2018-01-15 19:00:00 7.2 6 Sudoeste 21 Sudoeste 0 -- -- 58
2018-01-15 18:00:00 7.9 9 Oeste 21 Oeste 0 -- -- 55
2018-01-15 17:00:00 9.2 10 Noroeste 21 Oeste 0 -- -- 52
2018-01-15 16:00:00 10.8 6 Noroeste 20 Norte 0 -- -- 48
2018-01-15 15:00:00 10.5 6 Sudoeste 26 Sudoeste 0 -- -- 52
2018-01-15 14:00:00 9 8 Oeste 19 Sudoeste 0 -- -- 56
2018-01-15 13:00:00 7.4 4 Sur 23 Sudoeste 0 -- -- 60
2018-01-15 12:00:00 6.1 5 Oeste 23 Oeste 0 -- -- 67
2018-01-15 11:00:00 5.1 10 Oeste 20 Oeste 0 -- -- 70
2018-01-15 10:00:00 4.3 6 Oeste 18 Oeste 0 -- -- 73
2018-01-15 09:00:00 3.4 0 Calma 6 Sur 0 -- -- 76
2018-01-15 08:00:00 3.3 3 Sur 21 Noroeste 0 -- -- 76
2018-01-15 07:00:00 3.6 5 Sudoeste 16 Oeste 0 -- -- 76
2018-01-15 06:00:00 3.2 5 Sudoeste 21 Sudoeste 0 -- -- 77
2018-01-15 05:00:00 3.4 5 Noroeste 19 Noroeste 0 -- -- 77
2018-01-15 04:00:00 3.4 6 Oeste 18 Noroeste 0 -- -- 77
2018-01-15 03:00:00 3.5 3 Oeste 13 Noroeste 0 -- -- 77
2018-01-15 02:00:00 3.6 4 Noroeste 22 Noroeste 0 -- -- 76
2018-01-15 01:00:00 4 9 Noroeste 21 Noroeste 0 -- -- 75
2018-01-15 00:00:00 4.2 9 Noroeste 26 Oeste 0 -- -- 75
2018-01-14 23:00:00 4.2 6 Oeste 17 Noroeste 0 -- -- 75
2018-01-14 22:00:00 4.4 5 Noroeste 17 Noroeste 0 -- -- 75
2018-01-14 21:00:00 4.6 4 Oeste 19 Noroeste 0 -- -- 77
2018-01-14 20:00:00 4.7 8 Noroeste 13 Noroeste 0 -- -- 80
2018-01-14 19:00:00 4.7 2 Oeste 15 Oeste 0 -- -- 76
2018-01-14 18:00:00 5 7 Oeste 14 Oeste 0 -- -- 74
2018-01-14 17:00:00 5.2 6 Noroeste 20 Noroeste 0 -- -- 74
2018-01-14 16:00:00 5.8 14 Noroeste 33 Noroeste 0 -- -- 67
2018-01-14 15:00:00 6.4 10 Noroeste 35 Noroeste 0 -- -- 62
2018-01-14 14:00:00 6.9 8 Sudoeste 27 Oeste 0 -- -- 60
2018-01-14 13:00:00 7.7 8 Noroeste 31 Oeste 0 -- -- 56
2018-01-14 12:00:00 6.2 12 Sudoeste 28 Sudoeste 0 -- -- 62
2018-01-14 11:00:00 5 10 Sudoeste 20 Sudoeste 0 -- -- 65
2018-01-14 10:00:00 4.1 5 Sudoeste 24 Norte 0 -- -- 69
2018-01-14 09:00:00 3.8 11 Oeste 36 Oeste 0 -- -- 70
2018-01-14 08:00:00 3.6 19 Noroeste 37 Oeste 0 -- -- 70
2018-01-14 07:00:00 3.5 8 Oeste 16 Sudoeste 0 -- -- 72
2018-01-14 06:00:00 3.4 3 Noroeste 28 Sudoeste 0 -- -- 74
2018-01-14 05:00:00 4 7 Oeste 36 Noroeste 0.2 -- -- 74
2018-01-14 04:00:00 4.2 6 Oeste 24 Noroeste 0 -- -- 75
2018-01-14 03:00:00 4.3 5 Sudeste 25 Sudoeste 0 -- -- 75
2018-01-14 02:00:00 4.6 12 Sudoeste 31 Oeste 0 -- -- 73
2018-01-14 01:00:00 3.1 2 Oeste 5 Oeste 0 -- -- 92
2018-01-14 00:00:00 3.5 3 Oeste 14 Noroeste 0 -- -- 89
2018-01-13 23:00:00 3.8 8 Noroeste 16 Noroeste 0 -- -- 85
2018-01-13 22:00:00 4.1 10 Noroeste 22 Sudoeste 0.6 -- -- 84
2018-01-13 21:00:00 5.6 9 Noroeste 19 Norte 0.2 -- -- 78
2018-01-13 20:00:00 6.1 12 Noroeste 23 Noroeste 0 -- -- 67
2018-01-13 19:00:00 6.8 4 Nordeste 9 Este 0 -- -- 70
2018-01-13 18:00:00 7.3 5 Sudeste 9 Sudeste 0 -- -- 66
2018-01-13 17:00:00 8.3 5 Sudeste 15 Nordeste 0 -- -- 62
2018-01-13 16:00:00 8.7 8 Este 15 Este 0 -- -- 60
2018-01-13 15:00:00 8.8 4 Sudeste 12 Sudeste 0 -- -- 56
2018-01-13 14:00:00 9 2 Sur 9 Sur 0 -- -- 57
2018-01-13 13:00:00 8.5 6 Sur 12 Sur 0 -- -- 58
2018-01-13 12:00:00 8.2 7 Sur 16 Sur 0 -- -- 60
2018-01-13 11:00:00 6.6 6 Sur 17 Sur 0 -- -- 58
2018-01-13 10:00:00 5.2 7 Sur 10 Sudoeste 0 -- -- 59
2018-01-13 09:00:00 3.7 8 Sudoeste 12 Sudoeste 0 -- -- 58
2018-01-13 08:00:00 1.6 2 Sudeste 7 Este 0 -- -- 68
2018-01-13 07:00:00 1.8 3 Sudeste 5 Este 0 -- -- 67
2018-01-13 06:00:00 1.4 0 Calma 8 Este 0 -- -- 71
2018-01-13 05:00:00 0.8 4 Sudeste 10 Sudeste 0 -- -- 78
2018-01-13 04:00:00 0.9 5 Sudeste 9 Este 0 -- -- 80
2018-01-13 03:00:00 2.4 2 Sudeste 6 Este 0 -- -- 73
2018-01-13 02:00:00 2.8 0 Calma 8 Este 0 -- -- 71
2018-01-13 01:00:00 1.9 6 Este 10 Este 0 -- -- 78
2018-01-13 00:00:00 2.5 0 Calma 6 Nordeste 0 -- -- 76
2018-01-12 23:00:00 3.6 3 Este 6 Este 0 -- -- 71
2018-01-12 22:00:00 3.7 0 Calma 10 Oeste 0 -- -- 71
2018-01-12 21:00:00 5.4 5 Oeste 13 Oeste 0 -- -- 66
2018-01-12 20:00:00 5.3 5 Oeste 9 Oeste 0 -- -- 66
2018-01-12 19:00:00 6.1 3 Noroeste 8 Oeste 0 -- -- 62
2018-01-12 18:00:00 7 5 Noroeste 19 Oeste 0 -- -- 59
2018-01-12 17:00:00 9.1 9 Oeste 26 Oeste 0 -- -- 51
2018-01-12 16:00:00 9.7 16 Noroeste 35 Noroeste 0 -- -- 49
2018-01-12 15:00:00 8.4 17 Noroeste 42 Oeste 0 -- -- 54
2018-01-12 14:00:00 9.6 15 Noroeste 35 Noroeste 0 -- -- 53
2018-01-12 13:00:00 8.9 14 Noroeste 28 Oeste 0 -- -- 57
2018-01-12 12:00:00 8.6 13 Noroeste 39 Noroeste 0 -- -- 57
2018-01-12 11:00:00 7.4 15 Oeste 39 Noroeste 0 -- -- 61
2018-01-12 10:00:00 6.7 8 Sudoeste 43 Noroeste 0 -- -- 65
2018-01-12 09:00:00 4.7 7 Sur 21 Sudoeste 0 -- -- 75
2018-01-12 08:00:00 4.5 5 Oeste 33 Oeste 0 -- -- 74
2018-01-12 07:00:00 4.7 17 Oeste 39 Oeste 0 -- -- 73
2018-01-12 06:00:00 4.7 15 Oeste 38 Oeste 0 -- -- 74
2018-01-12 05:00:00 4.4 19 Oeste 44 Oeste 0 -- -- 74
2018-01-12 04:00:00 4.4 21 Oeste 50 Oeste 0 -- -- 72
2018-01-12 03:00:00 4 14 Oeste 40 Oeste 0 -- -- 75
2018-01-12 02:00:00 4 12 Oeste 40 Oeste 0 -- -- 73
2018-01-12 01:00:00 4.3 21 Oeste 48 Noroeste 0 -- -- 72
2018-01-12 00:00:00 4.2 15 Oeste 36 Oeste 0 -- -- 70
2018-01-11 23:00:00 3.9 7 Oeste 31 Noroeste 0 -- -- 71
2018-01-11 22:00:00 4.3 21 Oeste 41 Oeste 0 -- -- 72
2018-01-11 21:00:00 4.8 12 Oeste 46 Oeste 0 -- -- 65
2018-01-11 20:00:00 5.4 17 Oeste 35 Noroeste 0 -- -- 59
2018-01-11 19:00:00 5.6 9 Oeste 41 Sudoeste 0 -- -- 59
2018-01-11 18:00:00 5.9 21 Oeste 41 Oeste 0 -- -- 56
2018-01-11 17:00:00 6.5 17 Oeste 48 Noroeste 0 -- -- 53
2018-01-11 16:00:00 8 18 Oeste 51 Noroeste 0 -- -- 50
2018-01-11 15:00:00 6.9 29 Oeste 65 Noroeste 0 -- -- 50
2018-01-11 14:00:00 7.7 23 Oeste 65 Noroeste 0 -- -- 48
2018-01-11 13:00:00 7.2 21 Oeste 54 Oeste 0 -- -- 51
2018-01-11 12:00:00 5.9 17 Oeste 61 Noroeste 0 -- -- 56
2018-01-11 11:00:00 5.3 22 Oeste 53 Oeste 0 -- -- 58
2018-01-11 10:00:00 4.4 19 Oeste 37 Oeste 0 -- -- 64
2018-01-11 09:00:00 4.1 21 Oeste 46 Sudoeste 0 -- -- 64
2018-01-11 08:00:00 4.3 26 Sudoeste 50 Sudoeste 0 -- -- 64
2018-01-11 07:00:00 3.8 12 Oeste 55 Sudoeste 0 -- -- 64
2018-01-11 06:00:00 4.1 26 Sudoeste 55 Sudoeste 0 -- -- 61
2018-01-11 05:00:00 3.4 19 Oeste 58 Sudoeste 0 -- -- 63
2018-01-11 04:00:00 3.7 32 Sudoeste 57 Sur 0 -- -- 63
2018-01-11 03:00:00 3.6 19 Sudoeste 37 Oeste 0 -- -- 65
2018-01-11 02:00:00 3.9 15 Oeste 41 Noroeste 0 -- -- 63
2018-01-11 01:00:00 4.6 17 Oeste 53 Sudoeste 0 -- -- 62
2018-01-11 00:00:00 5.2 17 Oeste 55 Oeste 0 -- -- 66
2018-01-10 23:00:00 5.9 26 Sudoeste 58 Sudoeste 0 -- -- 67
2018-01-10 22:00:00 5.5 23 Sudoeste 68 Noroeste 0 -- -- 68
2018-01-10 21:00:00 8.1 17 Sudoeste 40 Oeste 0 -- -- 59
2018-01-10 20:00:00 8.1 9 Sudoeste 25 Oeste 0 -- -- 56
2018-01-10 19:00:00 8.5 11 Sudoeste 28 Sudoeste 0 -- -- 55
2018-01-10 18:00:00 8.4 13 Oeste 45 Sudoeste 0 -- -- 57
2018-01-10 17:00:00 9 14 Sudoeste 40 Sudoeste 0 -- -- 53
2018-01-10 16:00:00 10 21 Sudoeste 40 Sudoeste 0 -- -- 50
2018-01-10 15:00:00 11.1 13 Sudoeste 49 Oeste 0 -- -- 52
2018-01-10 14:00:00 12.3 10 Oeste 30 Noroeste 0 -- -- 52
2018-01-10 13:00:00 11 14 Oeste 32 Sudoeste 0 -- -- 53
2018-01-10 12:00:00 9.5 20 Sudoeste 39 Sudoeste 0 -- -- 57
2018-01-10 11:00:00 7.8 24 Sudoeste 41 Sudoeste 0 -- -- 66
2018-01-10 10:00:00 6.7 4 Oeste 15 Oeste 0 -- -- 73
2018-01-10 09:00:00 5.3 10 Oeste 17 Sudoeste 0 -- -- 78
2018-01-10 08:00:00 3.7 5 Oeste 10 Oeste 0 -- -- 84
2018-01-10 07:00:00 3.2 4 Este 8 Noroeste 0 -- -- 83
2018-01-10 06:00:00 2.9 0 Calma 6 Este 0 -- -- 83
2018-01-10 05:00:00 3.1 0 Calma 3 Norte 0 -- -- 83
2018-01-10 04:00:00 3.9 0 Calma 5 Nordeste 0 -- -- 79
2018-01-10 03:00:00 3.3 0 Calma 4 Oeste 0 -- -- 78
2018-01-10 02:00:00 3.3 0 Calma 4 Norte 0 -- -- 80
2018-01-10 01:00:00 3.2 2 Oeste 6 Oeste 0.4 -- -- 81
2018-01-10 00:00:00 3.5 2 Sudoeste 13 Norte 0 -- -- 72
2018-01-09 23:00:00 4.6 2 Oeste 5 Oeste 0 -- -- 58
2018-01-09 22:00:00 4.4 0 Calma 3 Sudeste 0 -- -- 62
2018-01-09 21:00:00 5.3 0 Calma 5 Oeste 0 -- -- 55
2018-01-09 20:00:00 5.3 4 Este 8 Sudeste 0 -- -- 62
2018-01-09 19:00:00 5.7 4 Sudoeste 13 Sudoeste 0 -- -- 55
2018-01-09 18:00:00 5.6 2 Sudoeste 7 Sudoeste 0 -- -- 61
2018-01-09 17:00:00 7.7 2 Sur 21 Nordeste 0 -- -- 56
2018-01-09 16:00:00 7.1 6 Norte 12 Nordeste 0 -- -- 56
2018-01-09 15:00:00 7.2 4 Norte 11 Norte 0 -- -- 59
2018-01-09 14:00:00 7.7 2 Nordeste 6 Norte 0 -- -- 55
2018-01-09 13:00:00 7.4 4 Nordeste 12 Noroeste 0 -- -- 57
2018-01-09 12:00:00 6.5 3 Sur 6 Este 0 -- -- 62
2018-01-09 11:00:00 3.8 2 Este 10 Este 0 -- -- 63
2018-01-09 10:00:00 2.2 3 Este 8 Este 0 -- -- 70
2018-01-09 09:00:00 0.1 5 Este 8 Este 0 -- -- 77
2018-01-09 08:00:00 -0.5 6 Este 9 Este 0 -- -- 78
2018-01-09 07:00:00 -0.4 5 Este 10 Este 0 -- -- 78
2018-01-09 06:00:00 0.5 5 Este 8 Este 0 -- -- 75
2018-01-09 05:00:00 0.8 2 Nordeste 3 Este 0 -- -- 75
2018-01-09 04:00:00 1 0 Calma 9 Oeste 0 -- -- 75
2018-01-09 03:00:00 0.7 4 Este 9 Este 0 -- -- 78
2018-01-09 02:00:00 0.6 6 Este 8 Este 0 -- -- 79
2018-01-09 01:00:00 1.3 4 Nordeste 5 Nordeste 0 -- -- 78
2018-01-09 00:00:00 1.3 0 Calma 5 Este 0 -- -- 79
2018-01-08 23:00:00 1.3 0 Calma 4 Este 0 -- -- 80
2018-01-08 22:00:00 1.6 4 Este 7 Este 0 -- -- 81
2018-01-08 21:00:00 2.4 2 Sudeste 5 Este 0 -- -- 80
2018-01-08 20:00:00 3 3 Este 4 Este 0 -- -- 78
2018-01-08 19:00:00 3.2 3 Oeste 4 Nordeste 0 -- -- 77
2018-01-08 18:00:00 4.4 0 Calma 9 Sudoeste 0 -- -- 72
2018-01-08 17:00:00 6.4 0 Calma 8 Sur 0 -- -- 66
2018-01-08 16:00:00 5.3 3 Sudeste 5 Sudeste 0 -- -- 71
2018-01-08 15:00:00 4.2 2 Sudeste 6 Sur 0 -- -- 77
2018-01-08 14:00:00 3.9 2 Sudeste 11 Norte 0 -- -- 80
2018-01-08 13:00:00 2.8 0 Calma 8 Sudoeste 0 -- -- 83
2018-01-08 12:00:00 2.3 2 Este 6 Este 0 -- -- 82
2018-01-08 11:00:00 1.5 0 Calma 7 Este 0 -- -- 87
2018-01-08 10:00:00 -0.8 0 Calma 5 Este 0 -- -- 86
2018-01-08 09:00:00 -0.9 2 Este 4 Este 0 -- -- 88
2018-01-08 08:00:00 -0.6 0 Calma 3 Este 0 -- -- 87
2018-01-08 07:00:00 -0.7 0 Calma 4 Este 0 -- -- 85
2018-01-08 06:00:00 -0.4 3 Este 5 Este 0 -- -- 89
2018-01-08 05:00:00 -0.6 2 Este 7 Este 0 -- -- 92
2018-01-08 04:00:00 -0.2 0 Calma 5 Este 0 -- -- 93
2018-01-08 03:00:00 0.2 3 Este 4 Este 0 -- -- 93
2018-01-08 02:00:00 0.9 2 Este 3 Este 0 -- -- 94
2018-01-08 01:00:00 1.1 0 Calma 6 Norte 0 -- -- 93
2018-01-08 00:00:00 2 3 Nordeste 5 Norte 0 -- -- 94
2018-01-07 23:00:00 2.5 3 Nordeste 4 Noroeste 0 -- -- 91
2018-01-07 22:00:00 2.7 0 Calma 6 Este 0 -- -- 91
2018-01-07 21:00:00 3.3 0 Calma 8 Sudoeste 0 -- -- 86
2018-01-07 20:00:00 3.6 5 Sudoeste 9 Sur 0 -- -- 90
2018-01-07 19:00:00 3.8 0 Calma 8 Noroeste 0 -- -- 86
2018-01-07 18:00:00 4 5 Noroeste 18 Norte 0 -- -- 85
2018-01-07 17:00:00 6.1 8 Norte 31 Noroeste 0 -- -- 78
2018-01-07 16:00:00 5.5 14 Nordeste 35 Nordeste 0 -- -- 82
2018-01-07 15:00:00 7.3 7 Norte 20 Este 0 -- -- 74
2018-01-07 14:00:00 7.5 15 Este 24 Este 0 -- -- 68
2018-01-07 13:00:00 6.4 9 Sudeste 19 Este 0 -- -- 77
2018-01-07 12:00:00 4.9 3 Sudeste 7 Sudeste 0 -- -- 96
2018-01-07 11:00:00 2.1 2 Oeste 5 Sur 0 -- -- 97
2018-01-07 10:00:00 1.2 0 Calma 2 Oeste 0 -- -- 98
2018-01-07 09:00:00 0.7 0 Calma 3 Noroeste 0 -- -- 97
2018-01-07 08:00:00 0.6 0 Calma -- -- 0 -- -- 97
2018-01-07 07:00:00 0.3 0 Calma -- -- 0 -- -- 97
2018-01-07 06:00:00 0 0 Calma -- -- 0.2 -- -- 97
2018-01-07 05:00:00 -0.1 0 Calma 6 Este 1.2 -- -- 97
2018-01-07 04:00:00 0.4 4 Nordeste 27 Nordeste 1.4 -- -- 96
2018-01-07 03:00:00 1.4 8 Este 27 Nordeste 2 -- -- 96
2018-01-07 02:00:00 2.7 12 Nordeste 22 Nordeste 2 -- -- 96
2018-01-07 01:00:00 3.1 7 Norte 21 Este 0 -- -- 96
2018-01-07 00:00:00 3.9 4 Sur 14 Norte 0 -- -- 96
2018-01-06 23:00:00 4.1 4 Nordeste 20 Nordeste 1 -- -- 96
2018-01-06 22:00:00 4.6 4 Sudeste 25 Sur 3.2 -- -- 96
2018-01-06 21:00:00 4.7 9 Norte 19 Norte 3.4 -- -- 95
2018-01-06 20:00:00 4.7 4 Sur 10 Norte 2.2 -- -- 95
2018-01-06 19:00:00 4.9 2 Sur 17 Norte 3.6 -- -- 93
2018-01-06 18:00:00 5.3 11 Norte 21 Norte 2.8 -- -- 89
2018-01-06 17:00:00 6.4 7 Norte 24 Nordeste 0 -- -- 79
2018-01-06 16:00:00 7 11 Norte 26 Norte 0 -- -- 75
2018-01-06 15:00:00 8.4 10 Norte 24 Noroeste 0 -- -- 69
2018-01-06 14:00:00 10.5 9 Este 23 Este 0 -- -- 67
2018-01-06 13:00:00 9.5 11 Sudeste 39 Este 0 -- -- 70
2018-01-06 12:00:00 9 13 Este 25 Este 0 -- -- 66
2018-01-06 11:00:00 7.1 4 Oeste 13 Este 0 -- -- 68
2018-01-06 10:00:00 8 4 Norte 12 Norte 0 -- -- 64
2018-01-06 09:00:00 7.2 3 Sudeste 9 Sudoeste 0 -- -- 68
2018-01-06 08:00:00 7 0 Calma 5 Sudoeste 0 -- -- 66
2018-01-06 07:00:00 7.3 2 Sur 10 Oeste 0 -- -- 66
2018-01-06 06:00:00 7.6 3 Sudoeste 9 Sudoeste 0 -- -- 63
2018-01-06 05:00:00 7.7 4 Sudoeste 14 Sudoeste 0 -- -- 63
2018-01-06 04:00:00 7.2 0 Calma 10 Norte 0 -- -- 64
2018-01-06 03:00:00 7.2 3 Norte 13 Sudeste 0 -- -- 65
2018-01-06 02:00:00 6.6 6 Sudeste 12 Sudeste 0 -- -- 67
2018-01-06 01:00:00 7.4 4 Sur 30 Sudoeste 0 -- -- 63
2018-01-06 00:00:00 8.8 11 Sudoeste 24 Sudoeste 0 -- -- 61
2018-01-05 23:00:00 9.5 13 Sudoeste 29 Sudoeste 0 -- -- 58
2018-01-05 22:00:00 9.6 17 Sudoeste 24 Sudoeste 0 -- -- 57
2018-01-05 21:00:00 9.8 7 Sur 21 Sudoeste 0 -- -- 56
2018-01-05 20:00:00 11.1 17 Sudoeste 30 Sudoeste 0 -- -- 50
2018-01-05 19:00:00 12 11 Oeste 22 Oeste 0 -- -- 48
2018-01-05 18:00:00 13.3 8 Sudoeste 21 Sudoeste 0 -- -- 43
2018-01-05 17:00:00 15.8 8 Oeste 18 Oeste 0 -- -- 39
2018-01-05 16:00:00 17 5 Sudeste 22 Sudoeste 0 -- -- 36
2018-01-05 15:00:00 16.7 10 Sur 23 Sudoeste 0 -- -- 38
2018-01-05 14:00:00 15.7 4 Sudeste 11 Sudeste 0 -- -- 42
2018-01-05 13:00:00 14.2 5 Este 9 Nordeste 0 -- -- 46
2018-01-05 12:00:00 13.4 3 Este 8 Nordeste 0 -- -- 49
2018-01-05 11:00:00 11.3 4 Este 8 Este 0 -- -- 58
2018-01-05 10:00:00 9.7 5 Norte 24 Noroeste 0 -- -- 61
2018-01-05 09:00:00 9.1 15 Oeste 21 Oeste 0 -- -- 62
2018-01-05 08:00:00 5.2 4 Sudoeste 8 Sur 0 -- -- 82
2018-01-05 07:00:00 5.7 2 Sur 11 Sudeste 0 -- -- 80
2018-01-05 06:00:00 8.3 6 Oeste 9 Oeste 0 -- -- 70
2018-01-05 05:00:00 8.3 2 Sudoeste 4 Este 0 -- -- 70
2018-01-05 04:00:00 8.7 4 Sur 9 Oeste 0 -- -- 68
2018-01-05 03:00:00 9.5 4 Oeste 15 Oeste 0 -- -- 66
2018-01-05 02:00:00 10 13 Sudoeste 22 Sudoeste 0 -- -- 64
2018-01-05 01:00:00 10.5 5 Sudoeste 15 Sudoeste 0 -- -- 63
2018-01-05 00:00:00 10.7 5 Sudoeste 32 Sur 0 -- -- 64
2018-01-04 23:00:00 10.9 9 Sudoeste 31 Sudoeste 0 -- -- 63
2018-01-04 22:00:00 11.1 7 Sudeste 49 Sudoeste 0 -- -- 62
2018-01-04 21:00:00 10.9 8 Oeste 38 Oeste 0 -- -- 60
2018-01-04 20:00:00 11.8 32 Oeste 44 Oeste 0 -- -- 58
2018-01-04 19:00:00 13.7 10 Oeste 23 Noroeste 0 -- -- 48
2018-01-04 18:00:00 14.3 8 Norte 20 Nordeste 0 -- -- 51
2018-01-04 17:00:00 17.1 9 Oeste 50 Sudoeste 0 -- -- 42
2018-01-04 16:00:00 17.4 25 Sudoeste 53 Sudoeste 0 -- -- 40
2018-01-04 15:00:00 17.6 25 Sudoeste 44 Sudoeste 0 -- -- 43
2018-01-04 14:00:00 17.3 19 Sudoeste 35 Sudoeste 0 -- -- 45
2018-01-04 13:00:00 16.2 24 Sudoeste 58 Sudoeste 0 -- -- 47
2018-01-04 12:00:00 16.6 15 Sudoeste 30 Sudoeste 0 -- -- 47
2018-01-04 11:00:00 14.6 11 Sudoeste 43 Sudoeste 0 -- -- 56
2018-01-04 10:00:00 13.5 10 Norte 43 Oeste 0 -- -- 62
2018-01-04 09:00:00 12 21 Sudoeste 58 Sudoeste 0 -- -- 68
2018-01-04 08:00:00 12.1 15 Oeste 48 Sudoeste 0 -- -- 68
2018-01-04 07:00:00 12.2 26 Oeste 50 Sudoeste 0 -- -- 69
2018-01-04 06:00:00 12.4 15 Oeste 40 Oeste 0 -- -- 68
2018-01-04 05:00:00 12.4 19 Sudoeste 38 Sudoeste 0 -- -- 69
2018-01-04 04:00:00 12.6 16 Sudoeste 46 Sudoeste 0 -- -- 69
2018-01-04 03:00:00 13 17 Sudoeste 39 Sudoeste 0 -- -- 69
2018-01-04 02:00:00 13.2 13 Oeste 35 Oeste 0 -- -- 68
2018-01-04 01:00:00 13.3 14 Sudoeste 39 Sur 0 -- -- 67
2018-01-04 00:00:00 13.5 12 Oeste 34 Sudoeste 0 -- -- 66
2018-01-03 23:00:00 13.2 13 Oeste 40 Oeste 0 -- -- 67
2018-01-03 22:00:00 13.6 15 Oeste 43 Oeste 0 -- -- 65
2018-01-03 21:00:00 13.5 21 Oeste 38 Noroeste 0 -- -- 65
2018-01-03 20:00:00 13.6 17 Oeste 37 Oeste 0 -- -- 65
2018-01-03 19:00:00 13.8 6 Oeste 32 Sudoeste 0 -- -- 65
2018-01-03 18:00:00 14.6 14 Sudoeste 45 Sur 0 -- -- 63
2018-01-03 17:00:00 17.1 10 Noroeste 33 Noroeste 0 -- -- 54
2018-01-03 16:00:00 17.4 18 Sudoeste 39 Sudoeste 0 -- -- 53
2018-01-03 15:00:00 18.1 12 Oeste 36 Sudoeste 0 -- -- 51
2018-01-03 14:00:00 18.4 11 Oeste 27 Noroeste 0 -- -- 51
2018-01-03 13:00:00 17 12 Oeste 29 Noroeste 0 -- -- 55
2018-01-03 12:00:00 15.6 9 Oeste 41 Noroeste 0 -- -- 58
2018-01-03 11:00:00 14.3 12 Oeste 33 Oeste 0 -- -- 61
2018-01-03 10:00:00 13.1 13 Oeste 39 Sudoeste 0 -- -- 66
2018-01-03 09:00:00 13 22 Sudoeste 41 Sudoeste 0 -- -- 66
2018-01-03 08:00:00 12.3 18 Oeste 41 Sudoeste 0 -- -- 69
2018-01-03 07:00:00 12.1 20 Oeste 49 Sudoeste 0 -- -- 70
2018-01-03 06:00:00 11.9 19 Oeste 39 Oeste 0 -- -- 70
2018-01-03 05:00:00 12.1 18 Oeste 31 Oeste 0 -- -- 69
2018-01-03 04:00:00 12.2 14 Oeste 30 Oeste 0 -- -- 68
2018-01-03 03:00:00 12.1 21 Sudoeste 48 Sudoeste 0 -- -- 69
2018-01-03 02:00:00 12 27 Sudoeste 44 Oeste 0 -- -- 68
2018-01-03 01:00:00 12.1 21 Oeste 39 Oeste 0 -- -- 67
2018-01-03 00:00:00 12 21 Sudoeste 44 Sudoeste 0 -- -- 66
2018-01-02 23:00:00 12 13 Oeste 34 Sudoeste 0 -- -- 66
2018-01-02 22:00:00 11.8 14 Oeste 48 Sudoeste 0 -- -- 66
2018-01-02 21:00:00 12.2 27 Sudoeste 52 Sudoeste 0 -- -- 64
2018-01-02 20:00:00 12.4 11 Oeste 41 Oeste 0 -- -- 62
2018-01-02 19:00:00 12.9 21 Oeste 47 Sudoeste 0 -- -- 59
2018-01-02 18:00:00 13.5 23 Sudoeste 48 Sudoeste 0 -- -- 57
2018-01-02 17:00:00 15 23 Sudoeste 48 Sur 0 -- -- 53
2018-01-02 16:00:00 15.2 14 Oeste 43 Sudoeste 0 -- -- 51
2018-01-02 15:00:00 15.5 24 Sudoeste 40 Sudoeste 0 -- -- 49
2018-01-02 14:00:00 16.2 11 Oeste 42 Noroeste 0 -- -- 46
2018-01-02 13:00:00 15.3 16 Noroeste 38 Noroeste 0 -- -- 47
2018-01-02 12:00:00 13.5 19 Oeste 37 Oeste 0 -- -- 51
2018-01-02 11:00:00 11.5 17 Oeste 35 Noroeste 0 -- -- 55
2018-01-02 10:00:00 10 10 Oeste 32 Noroeste 0 -- -- 59
2018-01-02 09:00:00 8.6 12 Oeste 32 Sudoeste 0 -- -- 63
2018-01-02 08:00:00 8.5 7 Sur 28 Oeste 0 -- -- 64
2018-01-02 07:00:00 8.9 6 Oeste 35 Noroeste 0 -- -- 67
2018-01-02 06:00:00 9.3 13 Oeste 35 Oeste 0 -- -- 68
2018-01-02 05:00:00 9.5 12 Oeste 40 Oeste 0 -- -- 69
2018-01-02 04:00:00 9.6 14 Oeste 32 Oeste 0 -- -- 67
2018-01-02 03:00:00 9.7 20 Oeste 47 Noroeste 0 -- -- 66
2018-01-02 02:00:00 9.8 21 Oeste 46 Oeste 0 -- -- 64
2018-01-02 01:00:00 9.9 19 Oeste 47 Sudoeste 0 -- -- 63
2018-01-02 00:00:00 10.3 18 Oeste 36 Oeste 0 -- -- 61
2018-01-01 23:00:00 10.7 15 Oeste 46 Sudoeste 0 -- -- 59
2018-01-01 22:00:00 10.9 25 Sudoeste 52 Sudoeste 0 -- -- 56
2018-01-01 21:00:00 11.2 25 Sudoeste 65 Oeste 0 -- -- 53
2018-01-01 20:00:00 11 34 Sudoeste 62 Sudoeste 0 -- -- 51
2018-01-01 19:00:00 10.5 26 Sudoeste 49 Sudoeste 0 -- -- 50
2018-01-01 18:00:00 10.5 28 Sudoeste 45 Sudoeste 0 -- -- 46
2018-01-01 17:00:00 11.7 15 Sudoeste 37 Sudoeste 0 -- -- 38
2018-01-01 16:00:00 13.1 17 Sudoeste 42 Oeste 0 -- -- 32
2018-01-01 15:00:00 13.6 22 Sudoeste 51 Sudoeste 0 -- -- 24
2018-01-01 14:00:00 13.8 24 Sudoeste 53 Sur 0 -- -- 23
2018-01-01 13:00:00 13.3 21 Sudoeste 37 Sudoeste 0 -- -- 22
2018-01-01 12:00:00 11.3 11 Este 22 Este 0 -- -- 30
2018-01-01 11:00:00 10.1 20 Sudoeste 51 Oeste 0 -- -- 30
2018-01-01 10:00:00 7.5 8 Sudoeste 33 Sur 0 -- -- 43
2018-01-01 09:00:00 5.1 5 Este 16 Sur 0 -- -- 55
2018-01-01 08:00:00 4.6 5 Este 28 Noroeste 0 -- -- 55
2018-01-01 07:00:00 5.2 20 Oeste 45 Noroeste 0 -- -- 53
2018-01-01 06:00:00 5.3 25 Oeste 43 Oeste 0 -- -- 54
2018-01-01 05:00:00 5 22 Oeste 40 Oeste 0 -- -- 56
2018-01-01 04:00:00 5 18 Oeste 35 Sudoeste 0 -- -- 56
2018-01-01 03:00:00 5.2 9 Oeste 39 Oeste 0 -- -- 52
2018-01-01 02:00:00 5.4 16 Oeste 35 Oeste 0 -- -- 51
2018-01-01 01:00:00 6.2 14 Oeste 56 Noroeste 0 -- -- 59
2018-01-01 00:00:00 7.1 21 Oeste 40 Noroeste 0 -- -- 64
2017-12-31 23:00:00 7.9 20 Oeste 55 Noroeste 0 -- -- 62
2017-12-31 22:00:00 8.5 22 Oeste 54 Oeste 0 -- -- 58
2017-12-31 21:00:00 9.1 9 Oeste 39 Norte 0.2 -- -- 66
2017-12-31 20:00:00 10.8 6 Oeste 15 Sudoeste 0 -- -- 58
2017-12-31 19:00:00 10.6 9 Oeste 17 Noroeste 0 -- -- 56
2017-12-31 18:00:00 11.2 10 Oeste 37 Oeste 0 -- -- 56
2017-12-31 17:00:00 11.6 4 Noroeste 15 Nordeste 0 -- -- 57
2017-12-31 16:00:00 11.4 0 Calma 10 Noroeste 0 -- -- 58
2017-12-31 15:00:00 11.8 0 Calma 21 Este 0 -- -- 56
2017-12-31 14:00:00 12.2 6 Norte 12 Norte 0 -- -- 55
2017-12-31 13:00:00 10.7 3 Sudoeste 9 Sur 0 -- -- 59
2017-12-31 12:00:00 7.2 0 Calma 6 Oeste 0 -- -- 59
2017-12-31 11:00:00 5.3 2 Sudoeste 6 Oeste 0 -- -- 64
2017-12-31 10:00:00 5.4 0 Calma 14 Nordeste 0 -- -- 63
2017-12-31 09:00:00 4.8 4 Este 10 Nordeste 0 -- -- 63
2017-12-31 08:00:00 4 5 Este 8 Este 0 -- -- 69
2017-12-31 07:00:00 4.9 2 Este 8 Este 0 -- -- 66
2017-12-31 06:00:00 5.5 2 Sudeste 8 Este 0 -- -- 64
2017-12-31 05:00:00 6.1 2 Sudoeste 8 Este 0 -- -- 63
2017-12-31 04:00:00 6.6 4 Sudeste 8 Este 0 -- -- 65
2017-12-31 03:00:00 6.9 4 Este 9 Este 0 -- -- 68
2017-12-31 02:00:00 7.6 8 Este 12 Este 0 -- -- 66
2017-12-31 01:00:00 8.3 6 Este 9 Este 0 -- -- 66